Time;durP1;ratioP1;P1;durP2;ratioP2;P2;SDS_P1;SDS_P2;PMS_P1;PMS_P2;Temp;Humidity;BMP_temperature;BMP_pressure;BME280_temperature;BME280_humidity;BME280_pressure;Samples;Min_cycle;Max_cycle;Signal;HPM_P1;HPM_P2
2023/06/22 07:50:09;;;;;;;8.15;5.10;;;22.50;99.90;;;;;;3136533;23;20240;-67
2023/06/22 07:52:36;;;;;;;8.65;5.43;;;22.50;99.90;;;;;;4955891;29;20544;-67
2023/06/22 07:55:03;;;;;;;7.47;5.03;;;22.40;99.90;;;;;;4956890;29;20236;-68
2023/06/22 07:57:33;;;;;;;8.82;5.35;;;22.10;99.90;;;;;;4955969;28;20263;-74
2023/06/22 08:00:00;;;;;;;7.38;5.38;;;21.90;99.90;;;;;;4956501;29;20302;-73
2023/06/22 08:02:27;;;;;;;8.82;5.70;;;21.70;99.90;;;;;;4956469;29;20294;-69
2023/06/22 08:04:54;;;;;;;6.28;4.72;;;21.70;99.90;;;;;;4956704;29;20210;-75
2023/06/22 08:07:22;;;;;;;9.25;5.47;;;21.80;99.90;;;;;;4956551;29;20232;-70
2023/06/22 08:09:49;;;;;;;6.40;4.88;;;21.80;99.90;;;;;;4956635;29;20682;-71
2023/06/22 08:12:17;;;;;;;7.70;5.10;;;21.60;99.90;;;;;;4956513;29;20722;-70
2023/06/22 08:14:45;;;;;;;6.97;5.13;;;21.60;99.90;;;;;;4956356;29;20689;-69
2023/06/22 08:17:13;;;;;;;9.02;5.78;;;21.60;99.90;;;;;;4956606;29;20326;-70
2023/06/22 08:19:41;;;;;;;10.68;5.43;;;21.50;99.90;;;;;;4956801;29;20212;-70
2023/06/22 08:22:08;;;;;;;7.57;5.25;;;21.70;99.90;;;;;;4956130;29;20706;-70
2023/06/22 08:24:36;;;;;;;7.88;5.00;;;21.80;99.90;;;;;;4956457;29;20210;-71
2023/06/22 08:27:03;;;;;;;6.85;4.88;;;21.80;99.90;;;;;;4956139;29;20239;-70
2023/06/22 08:29:30;;;;;;;9.20;5.28;;;21.60;99.90;;;;;;4956057;29;20216;-70
2023/06/22 08:31:57;;;;;;;8.15;5.68;;;21.60;99.90;;;;;;4956054;29;20215;-70
2023/06/22 08:34:25;;;;;;;8.57;5.70;;;21.60;99.90;;;;;;4956070;29;20296;-70
2023/06/22 08:36:52;;;;;;;8.38;5.60;;;21.50;99.90;;;;;;4956087;29;20266;-70
2023/06/22 08:39:19;;;;;;;7.82;5.25;;;21.60;99.90;;;;;;4956015;29;20286;-70
2023/06/22 08:41:48;;;;;;;8.40;5.13;;;21.60;99.90;;;;;;4956204;29;20236;-69
2023/06/22 08:44:15;;;;;;;7.32;5.53;;;21.40;99.90;;;;;;4956167;29;20208;-70
2023/06/22 08:46:42;;;;;;;7.63;5.50;;;21.40;99.90;;;;;;4955779;29;20228;-70
2023/06/22 08:49:09;;;;;;;9.20;5.40;;;21.50;99.90;;;;;;4956007;29;20208;-69
2023/06/22 08:51:36;;;;;;;10.32;6.00;;;21.40;99.90;;;;;;4955563;29;20222;-70
2023/06/22 08:54:03;;;;;;;8.40;5.28;;;21.60;99.90;;;;;;4955903;29;20212;-70
2023/06/22 08:56:30;;;;;;;7.70;4.82;;;21.70;99.90;;;;;;4955446;29;20208;-71
2023/06/22 08:58:58;;;;;;;8.50;4.97;;;21.70;99.90;;;;;;4955812;29;20211;-71
2023/06/22 09:01:25;;;;;;;10.35;5.05;;;21.60;99.90;;;;;;4955736;29;20254;-72
2023/06/22 09:03:57;;;;;;;9.15;5.50;;;21.50;99.90;;;;;;4955486;29;20703;-72
2023/06/22 09:06:24;;;;;;;8.02;4.82;;;21.60;99.90;;;;;;4951068;29;20730;-73
2023/06/22 09:08:50;;;;;;;6.70;4.40;;;21.70;99.90;;;;;;4950438;28;20209;-73
2023/06/22 09:11:17;;;;;;;5.63;4.03;;;21.50;99.90;;;;;;4945041;29;20288;-73
2023/06/22 09:13:46;;;;;;;5.72;4.40;;;21.50;99.90;;;;;;4955497;29;20218;-73
2023/06/22 09:16:14;;;;;;;6.15;3.85;;;21.50;99.90;;;;;;4954504;29;20228;-73
2023/06/22 09:18:41;;;;;;;6.03;4.38;;;21.50;99.90;;;;;;4954813;29;20235;-73
2023/06/22 09:21:08;;;;;;;6.32;4.10;;;21.40;99.90;;;;;;4943283;29;20205;-75
2023/06/22 09:23:35;;;;;;;8.20;4.60;;;21.20;99.90;;;;;;4939845;29;20200;-74
2023/06/22 09:26:02;;;;;;;7.28;4.13;;;21.00;99.90;;;;;;4955064;29;20239;-72
2023/06/22 09:28:29;;;;;;;10.23;5.03;;;20.80;99.90;;;;;;4955091;29;20287;-69
2023/06/22 09:30:58;;;;;;;6.88;5.03;;;20.40;99.90;;;;;;4955374;29;20200;-69
2023/06/22 09:33:27;;;;;;;9.50;5.00;;;20.00;99.90;;;;;;4954707;29;20552;-69
2023/06/22 09:35:54;;;;;;;8.30;5.38;;;19.80;99.90;;;;;;4954174;29;20210;-70
2023/06/22 09:38:21;;;;;;;8.37;4.80;;;19.20;99.90;;;;;;4954548;29;20426;-70
2023/06/22 09:40:47;;;;;;;9.77;5.47;;;19.00;99.90;;;;;;4954555;29;20291;-69
2023/06/22 09:43:14;;;;;;;9.40;4.67;;;18.90;99.90;;;;;;4954718;29;20246;-69
2023/06/22 09:45:41;;;;;;;9.77;5.30;;;18.80;99.90;;;;;;4954800;29;20218;-68
2023/06/22 09:48:09;;;;;;;13.48;5.60;;;18.70;99.90;;;;;;4954907;29;20224;-70
2023/06/22 09:50:38;;;;;;;11.07;5.83;;;18.60;99.90;;;;;;4954286;29;20216;-70
2023/06/22 09:53:04;;;;;;;8.13;4.73;;;18.60;99.90;;;;;;4954555;29;20212;-68
2023/06/22 09:55:31;;;;;;;9.57;5.20;;;18.70;99.90;;;;;;4954802;29;20224;-69
2023/06/22 09:57:58;;;;;;;10.68;5.10;;;18.70;99.90;;;;;;4954806;29;20228;-69
2023/06/22 10:00:26;;;;;;;10.50;5.67;;;18.60;99.90;;;;;;4948336;29;20296;-70
2023/06/22 10:02:53;;;;;;;10.70;6.00;;;18.60;99.90;;;;;;4939803;29;20319;-68
2023/06/22 10:05:20;;;;;;;10.10;5.60;;;18.70;99.90;;;;;;4954281;29;20207;-69
2023/06/22 10:07:48;;;;;;;10.53;6.37;;;18.70;99.90;;;;;;4954308;29;20728;-68
2023/06/22 10:10:15;;;;;;;10.87;5.97;;;18.80;99.90;;;;;;4954232;29;20307;-72
2023/06/22 10:12:47;;;;;;;7.77;5.87;;;18.80;99.90;;;;;;4954342;29;20287;-69
2023/06/22 10:15:14;;;;;;;10.80;6.17;;;18.70;99.90;;;;;;4954053;29;20682;-72
2023/06/22 10:17:41;;;;;;;11.70;6.73;;;18.70;99.90;;;;;;4954265;29;20228;-69
2023/06/22 10:20:12;;;;;;;9.67;6.20;;;18.80;99.90;;;;;;4956287;28;20208;-70
2023/06/22 10:22:40;;;;;;;13.67;6.80;;;18.70;99.90;;;;;;4958208;29;20289;-70
2023/06/22 10:25:09;;;;;;;9.47;6.17;;;18.80;99.90;;;;;;4957971;28;20212;-69
2023/06/22 10:27:36;;;;;;;11.33;7.30;;;18.80;99.90;;;;;;4938818;29;20561;-69
2023/06/22 10:30:05;;;;;;;11.37;7.07;;;18.80;99.90;;;;;;4949028;29;20667;-69
2023/06/22 10:32:31;;;;;;;10.73;7.10;;;18.80;99.90;;;;;;4939202;29;20264;-68
2023/06/22 10:34:58;;;;;;;10.90;7.27;;;18.70;99.90;;;;;;4941311;29;20292;-68
2023/06/22 10:37:25;;;;;;;11.23;7.40;;;18.70;99.90;;;;;;4949377;29;20234;-67
2023/06/22 10:39:52;;;;;;;10.97;7.37;;;18.60;99.90;;;;;;4942574;29;20271;-68
2023/06/22 10:42:20;;;;;;;13.40;8.60;;;18.60;99.90;;;;;;4957722;29;20238;-68
2023/06/22 10:44:47;;;;;;;15.70;9.37;;;18.60;99.90;;;;;;4958157;29;20624;-67
2023/06/22 10:47:14;;;;;;;13.63;8.70;;;18.50;99.90;;;;;;4956379;29;20236;-68
2023/06/22 10:49:41;;;;;;;17.00;10.23;;;18.60;99.90;;;;;;4957945;29;20226;-68
2023/06/22 10:52:09;;;;;;;15.80;8.97;;;18.60;99.90;;;;;;4957831;29;20212;-68
2023/06/22 10:54:37;;;;;;;15.27;9.20;;;18.50;99.90;;;;;;4957465;29;20291;-68
2023/06/22 10:57:04;;;;;;;14.87;9.27;;;18.50;99.90;;;;;;4957029;28;20568;-68
2023/06/22 10:59:33;;;;;;;20.00;11.00;;;18.40;99.90;;;;;;4957401;29;20315;-68
2023/06/22 11:02:00;;;;;;;20.40;9.90;;;18.40;99.90;;;;;;4957385;29;20548;-67
2023/06/22 11:04:26;;;;;;;17.30;10.60;;;18.40;99.90;;;;;;4957811;29;20208;-67
2023/06/22 11:06:53;;;;;;;20.03;11.67;;;18.30;99.90;;;;;;4956374;29;20578;-69
2023/06/22 11:09:21;;;;;;;20.40;12.23;;;18.30;99.90;;;;;;4957599;29;20302;-67
2023/06/22 11:11:48;;;;;;;17.70;10.87;;;18.30;99.90;;;;;;4939796;29;20205;-68
2023/06/22 11:14:14;;;;;;;18.83;11.50;;;18.30;99.90;;;;;;4938362;29;20213;-69
2023/06/22 11:16:43;;;;;;;21.40;11.73;;;18.30;99.90;;;;;;4954157;28;20242;-67
2023/06/22 11:19:10;;;;;;;22.87;12.23;;;18.30;99.90;;;;;;4957094;28;20214;-68
2023/06/22 11:21:37;;;;;;;20.37;12.50;;;18.50;99.90;;;;;;4945071;28;20645;-71
2023/06/22 11:24:03;;;;;;;23.83;14.07;;;18.60;99.90;;;;;;4940809;29;20681;-71
2023/06/22 11:26:31;;;;;;;24.20;13.70;;;18.70;99.90;;;;;;4943355;28;20214;-70
2023/06/22 11:28:58;;;;;;;24.50;13.83;;;18.70;99.90;;;;;;4940921;29;20688;-68
2023/06/22 11:31:25;;;;;;;28.00;14.73;;;18.70;99.90;;;;;;4951260;28;20208;-69
2023/06/22 11:33:54;;;;;;;25.93;14.43;;;18.70;99.90;;;;;;4955091;29;20216;-68
2023/06/22 11:36:21;;;;;;;25.53;14.13;;;18.80;99.90;;;;;;4955636;29;20216;-69
2023/06/22 11:38:48;;;;;;;24.17;13.77;;;18.80;99.90;;;;;;4951223;29;20204;-68
2023/06/22 11:41:15;;;;;;;29.90;14.70;;;18.90;99.90;;;;;;4955195;29;20552;-71
2023/06/22 11:43:42;;;;;;;24.93;14.17;;;18.80;99.90;;;;;;4955709;29;20318;-70
2023/06/22 11:46:08;;;;;;;24.90;13.10;;;18.80;99.90;;;;;;4955991;29;20200;-71
2023/06/22 11:48:36;;;;;;;23.93;14.27;;;18.80;99.90;;;;;;4944230;29;20235;-70
2023/06/22 11:51:06;;;;;;;29.20;14.27;;;18.90;99.90;;;;;;4948580;28;20220;-69
2023/06/22 11:53:34;;;;;;;27.37;14.20;;;19.00;99.90;;;;;;4955435;28;20208;-69
2023/06/22 11:56:01;;;;;;;26.90;14.00;;;19.00;99.90;;;;;;4954374;28;20215;-68
2023/06/22 11:58:28;;;;;;;25.23;13.27;;;19.00;99.90;;;;;;4954814;28;20224;-71
2023/06/22 12:00:55;;;;;;;25.90;14.23;;;19.00;99.90;;;;;;4955896;28;20216;-74
2023/06/22 12:03:22;;;;;;;26.10;13.40;;;18.90;99.90;;;;;;4955053;28;20234;-70
2023/06/22 12:05:50;;;;;;;23.47;13.37;;;18.80;99.90;;;;;;4955333;29;20583;-73
2023/06/22 12:08:18;;;;;;;23.20;13.30;;;18.80;99.90;;;;;;4948138;29;20220;-73
2023/06/22 12:10:45;;;;;;;24.90;13.40;;;18.90;99.90;;;;;;4945727;29;20299;-70
2023/06/22 12:13:12;;;;;;;23.40;12.30;;;18.90;99.90;;;;;;4955009;28;20200;-73
2023/06/22 12:15:39;;;;;;;25.37;14.10;;;18.90;99.90;;;;;;4949518;29;20588;-72
2023/06/22 12:18:06;;;;;;;22.60;13.40;;;18.80;99.90;;;;;;4949285;29;20313;-72
2023/06/22 12:20:33;;;;;;;23.10;12.37;;;18.60;99.90;;;;;;4944117;29;20208;-72
2023/06/22 12:22:59;;;;;;;27.40;13.90;;;18.60;99.90;;;;;;4954355;29;20719;-72
2023/06/22 12:25:27;;;;;;;26.17;14.37;;;18.60;99.90;;;;;;4954606;29;20226;-72
2023/06/22 12:27:55;;;;;;;24.63;13.60;;;18.60;99.90;;;;;;4950871;29;20228;-71
2023/06/22 12:30:22;;;;;;;27.07;14.33;;;18.50;99.90;;;;;;4942902;28;20204;-71
2023/06/22 12:32:49;;;;;;;24.90;14.10;;;18.50;99.90;;;;;;4953919;28;20216;-71
2023/06/22 12:35:16;;;;;;;27.20;13.27;;;18.50;99.90;;;;;;4952622;29;20298;-71
2023/06/22 12:37:43;;;;;;;30.83;14.70;;;18.60;99.90;;;;;;4935331;29;20228;-73
2023/06/22 12:40:11;;;;;;;26.43;13.27;;;18.60;99.90;;;;;;4940079;28;20204;-74
2023/06/22 12:42:39;;;;;;;25.77;13.97;;;18.70;99.90;;;;;;4946306;28;20244;-73
2023/06/22 12:45:07;;;;;;;24.47;14.47;;;18.70;99.90;;;;;;4954425;28;20303;-72
2023/06/22 12:47:34;;;;;;;30.80;14.63;;;18.70;99.90;;;;;;4949760;29;20238;-70
2023/06/22 12:50:01;;;;;;;34.33;15.00;;;18.70;99.90;;;;;;4947659;28;20212;-70
2023/06/22 12:52:28;;;;;;;30.60;15.20;;;18.60;99.90;;;;;;4954271;28;20212;-71
2023/06/22 12:54:55;;;;;;;32.97;16.13;;;18.60;99.90;;;;;;4953788;29;20302;-70
2023/06/22 12:57:22;;;;;;;27.93;14.27;;;18.60;99.90;;;;;;4954100;29;20702;-69
2023/06/22 12:59:50;;;;;;;28.70;15.57;;;18.70;99.90;;;;;;4939527;29;20300;-71
2023/06/22 13:02:17;;;;;;;20.93;10.63;;;18.60;99.90;;;;;;4952708;29;20296;-71
2023/06/22 13:04:43;;;;;;;32.00;15.33;;;18.80;99.90;;;;;;4937751;29;20237;-71
2023/06/22 13:07:10;;;;;;;30.73;15.00;;;18.80;99.90;;;;;;4951718;28;20235;-71
2023/06/22 13:09:38;;;;;;;29.80;14.13;;;18.80;99.90;;;;;;4953022;29;20677;-73
2023/06/22 13:12:05;;;;;;;29.53;15.03;;;18.90;99.90;;;;;;4953397;29;20247;-73
2023/06/22 13:14:32;;;;;;;30.80;15.30;;;19.00;99.90;;;;;;4941472;29;20426;-73
2023/06/22 13:17:00;;;;;;;32.93;16.33;;;19.00;99.90;;;;;;4952810;28;20232;-72
2023/06/22 13:19:28;;;;;;;34.13;17.27;;;19.00;99.90;;;;;;4954036;28;20216;-71
2023/06/22 13:21:55;;;;;;;34.87;16.47;;;18.90;99.90;;;;;;4935953;29;20205;-72
2023/06/22 13:24:22;;;;;;;33.13;17.40;;;18.90;99.90;;;;;;4935617;29;20711;-70
2023/06/22 13:26:49;;;;;;;30.43;15.83;;;18.90;99.90;;;;;;4935959;29;20229;-71
2023/06/22 13:29:15;;;;;;;27.80;15.03;;;18.90;99.90;;;;;;4935604;29;20667;-70
2023/06/22 13:31:42;;;;;;;32.73;17.13;;;18.90;99.90;;;;;;4953212;29;20218;-71
2023/06/22 13:34:11;;;;;;;34.00;16.63;;;18.90;99.90;;;;;;4955085;29;20615;-72
2023/06/22 13:36:38;;;;;;;35.43;17.30;;;18.80;99.90;;;;;;4954834;29;20219;-72
2023/06/22 13:39:05;;;;;;;36.50;17.17;;;18.70;99.90;;;;;;4954616;29;20214;-69
2023/06/22 13:41:32;;;;;;;31.70;17.07;;;18.80;99.90;;;;;;4954819;29;20218;-70
2023/06/22 13:43:58;;;;;;;32.27;16.70;;;18.70;99.90;;;;;;4946903;29;20248;-69
2023/06/22 13:46:33;;;;;;;30.00;15.83;;;18.70;99.90;;;;;;4935756;29;20215;-69
2023/06/22 13:48:59;;;;;;;34.97;17.60;;;18.70;99.90;;;;;;4937843;29;20337;-68
2023/06/22 13:51:27;;;;;;;30.63;16.67;;;18.60;99.90;;;;;;4938372;29;20216;-68
2023/06/22 13:53:54;;;;;;;34.87;16.60;;;18.60;99.90;;;;;;4940082;29;20319;-67
2023/06/22 13:56:21;;;;;;;32.03;17.33;;;18.60;99.90;;;;;;4945481;29;20217;-67
2023/06/22 13:58:48;;;;;;;32.23;16.53;;;18.50;99.90;;;;;;4944278;29;20215;-68
2023/06/22 14:01:15;;;;;;;30.70;15.83;;;18.50;99.90;;;;;;4942477;29;20583;-68
2023/06/22 14:03:42;;;;;;;30.43;15.97;;;18.50;99.90;;;;;;4942391;29;20810;-68
2023/06/22 14:06:09;;;;;;;32.70;16.70;;;18.40;99.90;;;;;;4942161;29;20213;-68
2023/06/22 14:08:38;;;;;;;37.10;17.50;;;18.30;99.90;;;;;;4942156;29;20228;-68
2023/06/22 14:11:05;;;;;;;33.77;17.37;;;18.30;99.90;;;;;;4941507;29;20204;-68
2023/06/22 14:13:32;;;;;;;34.00;16.93;;;18.30;99.90;;;;;;4941944;29;20209;-68
2023/06/22 14:15:59;;;;;;;33.33;17.03;;;18.30;99.90;;;;;;4942129;29;20208;-68
2023/06/22 14:18:26;;;;;;;34.50;17.97;;;18.30;99.90;;;;;;4941792;29;20703;-68
2023/06/22 14:20:52;;;;;;;34.57;17.60;;;18.40;99.90;;;;;;4942121;29;20236;-68
2023/06/22 14:23:19;;;;;;;33.20;17.00;;;18.40;99.90;;;;;;4941721;29;20595;-69
2023/06/22 14:25:47;;;;;;;31.63;16.87;;;18.40;99.90;;;;;;4941755;29;20209;-68
2023/06/22 14:28:16;;;;;;;33.20;17.37;;;18.30;99.90;;;;;;4941565;29;20319;-68
2023/06/22 14:30:43;;;;;;;32.97;18.03;;;18.30;99.90;;;;;;4941917;29;20200;-68
2023/06/22 14:33:09;;;;;;;35.07;17.50;;;18.30;99.90;;;;;;4941736;29;20212;-68
2023/06/22 14:35:36;;;;;;;32.33;17.67;;;18.30;99.90;;;;;;4941571;29;20208;-68
2023/06/22 14:38:03;;;;;;;31.97;17.03;;;18.30;99.90;;;;;;4941319;29;20315;-68
2023/06/22 14:40:30;;;;;;;36.60;17.23;;;18.30;99.90;;;;;;4942082;29;20215;-68
2023/06/22 14:42:58;;;;;;;33.67;17.40;;;18.20;99.90;;;;;;4941641;29;20213;-69
2023/06/22 14:45:25;;;;;;;34.27;17.50;;;18.30;99.90;;;;;;4941522;29;20216;-68
2023/06/22 14:47:52;;;;;;;38.30;18.83;;;18.30;99.90;;;;;;4941312;29;20716;-68
2023/06/22 14:50:19;;;;;;;39.20;21.00;;;18.30;99.90;;;;;;4941540;29;20303;-68
2023/06/22 14:52:46;;;;;;;38.10;17.67;;;18.30;99.90;;;;;;4941224;29;20746;-69
2023/06/22 14:55:12;;;;;;;39.17;18.73;;;18.30;99.90;;;;;;4941408;29;20208;-68
2023/06/22 14:57:39;;;;;;;36.97;17.73;;;18.30;99.90;;;;;;4941397;29;20316;-68
2023/06/22 15:00:09;;;;;;;35.53;18.50;;;18.30;99.90;;;;;;4941238;29;20205;-68
2023/06/22 15:02:36;;;;;;;37.40;19.80;;;18.30;99.90;;;;;;4941215;29;20215;-68
2023/06/22 15:05:03;;;;;;;38.57;19.90;;;18.40;99.90;;;;;;4941050;29;20237;-68
2023/06/22 15:07:30;;;;;;;37.37;19.33;;;18.40;99.90;;;;;;4938141;29;20229;-68
2023/06/22 15:09:57;;;;;;;39.93;18.43;;;18.50;99.90;;;;;;4938661;29;20295;-69
2023/06/22 15:12:23;;;;;;;38.10;20.40;;;18.50;99.90;;;;;;4938395;29;20205;-69
2023/06/22 15:14:50;;;;;;;40.83;20.43;;;18.50;99.90;;;;;;4938539;29;20239;-68
2023/06/22 15:17:18;;;;;;;41.57;19.87;;;18.50;99.90;;;;;;4938203;29;20232;-68
2023/06/22 15:19:45;;;;;;;43.03;21.07;;;18.50;99.90;;;;;;4938157;29;20303;-68
2023/06/22 15:22:12;;;;;;;43.00;20.53;;;18.60;99.90;;;;;;4938418;29;20386;-68
2023/06/22 15:24:39;;;;;;;41.93;20.30;;;18.60;99.90;;;;;;4937904;29;20232;-68
2023/06/22 15:27:06;;;;;;;43.07;21.60;;;18.70;99.90;;;;;;4937709;29;20750;-68
2023/06/22 15:29:34;;;;;;;41.23;19.70;;;18.70;99.90;;;;;;4937983;29;20216;-68
2023/06/22 15:32:01;;;;;;;43.83;20.40;;;18.70;99.90;;;;;;4938082;29;20616;-69
2023/06/22 15:34:29;;;;;;;41.03;21.13;;;18.70;99.90;;;;;;4937893;29;20213;-69
2023/06/22 15:36:56;;;;;;;37.53;18.75;;;18.70;99.90;;;;;;4939140;29;20698;-71
2023/06/22 15:39:24;;;;;;;43.33;20.60;;;18.80;99.90;;;;;;4955701;29;20208;-71
2023/06/22 15:41:53;;;;;;;46.10;19.77;;;18.80;99.90;;;;;;4952406;29;20201;-70
2023/06/22 15:44:20;;;;;;;43.73;20.00;;;18.80;99.90;;;;;;4952390;29;20590;-70
2023/06/22 15:46:48;;;;;;;40.38;20.27;;;18.90;99.90;;;;;;4955808;29;20224;-71
2023/06/22 15:49:15;;;;;;;43.13;21.02;;;18.90;99.90;;;;;;4956617;29;20734;-70
2023/06/22 15:51:44;;;;;;;40.67;20.53;;;19.00;99.90;;;;;;4956459;29;20218;-71
2023/06/22 15:54:11;;;;;;;38.23;20.40;;;19.00;99.90;;;;;;4956309;29;20210;-71
2023/06/22 15:56:38;;;;;;;37.37;19.73;;;19.10;99.90;;;;;;4943633;29;20263;-71
2023/06/22 15:59:05;;;;;;;39.33;20.13;;;19.10;99.90;;;;;;4956390;29;20643;-70
2023/06/22 16:01:32;;;;;;;45.15;20.85;;;19.10;99.90;;;;;;4956178;29;20214;-70
2023/06/22 16:03:59;;;;;;;39.40;19.97;;;19.10;99.90;;;;;;4956559;29;20327;-70
2023/06/22 16:06:25;;;;;;;34.80;19.17;;;19.10;99.90;;;;;;4955982;29;20210;-71
2023/06/22 16:08:54;;;;;;;38.58;20.13;;;19.10;99.90;;;;;;4937348;29;20633;-71
2023/06/22 16:11:21;;;;;;;47.13;20.75;;;19.10;99.90;;;;;;4937115;29;20212;-71
2023/06/22 16:13:47;;;;;;;36.25;20.67;;;19.10;99.90;;;;;;4936985;29;20213;-70
2023/06/22 16:16:15;;;;;;;37.10;21.03;;;19.20;99.90;;;;;;4937650;29;20552;-70
2023/06/22 16:18:42;;;;;;;41.95;21.85;;;19.20;99.90;;;;;;4936338;29;20692;-69
2023/06/22 16:21:09;;;;;;;40.58;20.67;;;19.20;99.90;;;;;;4936793;29;20211;-70
2023/06/22 16:23:36;;;;;;;39.00;20.55;;;19.20;99.90;;;;;;4936766;29;20240;-69
2023/06/22 16:26:05;;;;;;;42.95;20.55;;;19.30;99.90;;;;;;4937033;29;20604;-70
2023/06/22 16:28:31;;;;;;;34.78;19.33;;;19.30;99.90;;;;;;4938743;29;20228;-70
2023/06/22 16:30:58;;;;;;;48.65;20.98;;;19.40;99.90;;;;;;4936444;29;20259;-69
2023/06/22 16:33:26;;;;;;;40.42;20.90;;;19.40;99.90;;;;;;4939561;29;20209;-69
2023/06/22 16:35:52;;;;;;;41.95;21.05;;;19.50;99.90;;;;;;4955151;29;20215;-69
2023/06/22 16:38:19;;;;;;;36.28;19.38;;;19.40;99.90;;;;;;4954535;29;20231;-69
2023/06/22 16:40:46;;;;;;;36.75;21.58;;;19.50;99.90;;;;;;4954896;29;20212;-69
2023/06/22 16:43:14;;;;;;;38.17;20.92;;;19.50;99.90;;;;;;4954485;29;20216;-69
2023/06/22 16:45:41;;;;;;;41.33;22.42;;;19.50;99.90;;;;;;4955336;29;20239;-69
2023/06/22 16:48:09;;;;;;;38.22;21.77;;;19.50;99.90;;;;;;4954725;29;20320;-69
2023/06/22 16:50:36;;;;;;;42.00;21.58;;;19.40;99.90;;;;;;4954609;29;20222;-69
2023/06/22 16:53:02;;;;;;;44.13;22.65;;;19.40;99.90;;;;;;4954586;29;20290;-69
2023/06/22 16:55:32;;;;;;;38.80;21.90;;;19.40;99.90;;;;;;4954627;29;20216;-69
2023/06/22 16:58:01;;;;;;;43.33;22.90;;;19.50;99.90;;;;;;4954131;29;20318;-69
2023/06/22 17:00:29;;;;;;;39.60;22.67;;;19.50;99.90;;;;;;4954513;29;20214;-69
2023/06/22 17:02:59;;;;;;;42.63;22.42;;;19.60;99.90;;;;;;4954424;29;20210;-68
2023/06/22 17:05:27;;;;;;;39.08;21.38;;;19.60;99.90;;;;;;4955050;29;20243;-69
2023/06/22 17:07:58;;;;;;;39.55;22.63;;;19.70;99.90;;;;;;4954741;29;20224;-68
2023/06/22 17:10:25;;;;;;;36.05;19.70;;;19.60;99.90;;;;;;4955112;29;20558;-70
2023/06/22 17:12:52;;;;;;;32.63;19.30;;;19.60;99.90;;;;;;4954665;29;20203;-68
2023/06/22 17:15:21;;;;;;;33.80;19.20;;;19.60;99.90;;;;;;4954982;29;20747;-68
2023/06/22 17:17:50;;;;;;;33.72;18.45;;;19.60;99.90;;;;;;4954786;28;20236;-69
2023/06/22 17:20:17;;;;;;;36.40;17.48;;;19.60;99.90;;;;;;4950429;29;20266;-68
2023/06/22 17:22:45;;;;;;;33.35;18.27;;;19.50;99.90;;;;;;4948419;29;20218;-68
2023/06/22 17:25:14;;;;;;;35.28;17.25;;;19.60;99.90;;;;;;4942926;29;20240;-68
2023/06/22 17:27:41;;;;;;;30.17;17.15;;;19.60;99.90;;;;;;4942788;29;20228;-69
2023/06/22 17:30:10;;;;;;;32.55;16.90;;;19.60;99.90;;;;;;4946967;28;20204;-68
2023/06/22 17:32:37;;;;;;;30.70;16.98;;;19.60;99.90;;;;;;4945229;29;20212;-68
2023/06/22 17:35:06;;;;;;;30.33;16.48;;;19.70;99.90;;;;;;4945382;29;20208;-68
2023/06/22 17:37:49;;;;;;;27.52;15.98;;;19.70;99.90;;;;;;4946151;29;20228;-68
2023/06/22 17:40:17;;;;;;;27.63;16.23;;;19.80;99.90;;;;;;4936455;29;20216;-68
2023/06/22 17:42:44;;;;;;;26.42;15.43;;;19.70;99.90;;;;;;4935446;29;20633;-69
2023/06/22 17:45:17;;;;;;;28.63;16.02;;;19.70;99.90;;;;;;4941946;29;20235;-68
2023/06/22 17:47:46;;;;;;;27.92;14.90;;;19.80;99.90;;;;;;4951979;29;20224;-69
2023/06/22 17:50:16;;;;;;;25.88;14.63;;;19.70;99.90;;;;;;4940550;29;20247;-68
2023/06/22 17:52:49;;;;;;;25.52;14.55;;;19.70;99.90;;;;;;4954330;29;20299;-68
2023/06/22 17:55:16;;;;;;;26.70;14.55;;;19.70;99.90;;;;;;4954407;29;20210;-68
2023/06/22 17:57:46;;;;;;;24.83;14.70;;;19.80;99.90;;;;;;4954269;29;20219;-68
2023/06/22 18:00:13;;;;;;;23.38;15.18;;;19.70;99.90;;;;;;4954148;29;20244;-68
2023/06/22 18:02:42;;;;;;;26.98;15.07;;;19.70;99.90;;;;;;4941851;29;20219;-68
2023/06/22 18:05:09;;;;;;;24.98;15.23;;;19.70;99.90;;;;;;4953970;29;20322;-69
2023/06/22 18:07:38;;;;;;;24.50;14.73;;;19.70;99.90;;;;;;4941937;29;20232;-68
2023/06/22 18:10:07;;;;;;;22.25;14.07;;;19.80;99.90;;;;;;4953573;29;20635;-69
2023/06/22 18:12:35;;;;;;;21.67;14.13;;;19.70;99.90;;;;;;4953805;29;20682;-69
2023/06/22 18:15:03;;;;;;;24.65;14.13;;;19.80;99.90;;;;;;4953964;29;20216;-68
2023/06/22 18:17:30;;;;;;;24.60;15.02;;;19.80;99.90;;;;;;4954415;29;20733;-68
2023/06/22 18:19:59;;;;;;;22.70;14.20;;;19.90;99.90;;;;;;4950120;29;20591;-68
2023/06/22 18:22:26;;;;;;;21.77;13.48;;;19.90;99.90;;;;;;4950758;29;20204;-68
2023/06/22 18:24:56;;;;;;;21.20;14.00;;;19.90;99.90;;;;;;4951557;29;20232;-69
2023/06/22 18:27:24;;;;;;;23.23;13.68;;;19.90;99.90;;;;;;4953687;29;20224;-69
2023/06/22 18:29:51;;;;;;;22.73;14.45;;;19.90;99.90;;;;;;4951664;29;20212;-69
2023/06/22 18:32:18;;;;;;;21.50;14.10;;;20.00;99.90;;;;;;4953969;29;20291;-69
2023/06/22 18:34:45;;;;;;;23.13;13.80;;;20.00;99.90;;;;;;4953122;29;20227;-69
2023/06/22 18:37:14;;;;;;;23.95;13.45;;;20.10;99.90;;;;;;4950553;29;20267;-69
2023/06/22 18:39:45;;;;;;;20.70;13.55;;;20.10;99.90;;;;;;4947087;29;20201;-68
2023/06/22 18:42:16;;;;;;;21.20;13.23;;;20.10;99.90;;;;;;4948339;29;20214;-68
2023/06/22 18:44:43;;;;;;;21.48;12.90;;;20.10;99.90;;;;;;4954053;29;20228;-68
2023/06/22 18:47:11;;;;;;;20.20;12.52;;;20.10;99.90;;;;;;4950247;29;20227;-69
2023/06/22 18:49:47;;;;;;;22.38;13.18;;;20.00;99.90;;;;;;4954516;29;20243;-70
2023/06/22 18:52:16;;;;;;;20.83;13.02;;;20.00;99.90;;;;;;4950934;29;20207;-71
2023/06/22 18:54:45;;;;;;;20.92;12.82;;;20.00;99.90;;;;;;4945266;29;20579;-70
2023/06/22 18:57:17;;;;;;;21.65;13.07;;;20.00;99.90;;;;;;4957235;29;20228;-69
2023/06/22 18:59:50;;;;;;;18.77;12.50;;;20.00;99.90;;;;;;4957549;29;20291;-70
2023/06/22 19:02:35;;;;;;;18.48;12.77;;;20.00;99.90;;;;;;4957457;29;20259;-69
2023/06/22 19:05:08;;;;;;;19.27;12.27;;;19.90;99.90;;;;;;4957472;29;20240;-70
2023/06/22 19:07:58;;;;;;;18.15;11.48;;;19.80;99.90;;;;;;4950062;29;20236;-69
2023/06/22 19:10:26;;;;;;;17.88;12.38;;;19.80;99.90;;;;;;4954455;29;20200;-69
2023/06/22 19:12:55;;;;;;;18.38;12.35;;;19.90;99.90;;;;;;4957414;29;20215;-69
2023/06/22 19:15:22;;;;;;;19.75;11.93;;;19.90;99.90;;;;;;4957150;29;20215;-70
2023/06/22 19:17:49;;;;;;;20.05;12.65;;;19.90;99.90;;;;;;4957083;29;20234;-70
2023/06/22 19:20:19;;;;;;;23.75;11.75;;;20.00;99.90;;;;;;4956748;29;20570;-69
2023/06/22 19:22:55;;;;;;;16.15;11.57;;;20.00;99.90;;;;;;4956935;29;20212;-70
2023/06/22 19:25:23;;;;;;;17.27;11.32;;;19.90;99.90;;;;;;4956879;29;20322;-69
2023/06/22 19:27:52;;;;;;;17.23;11.50;;;20.00;99.90;;;;;;4957069;29;20224;-70
2023/06/22 19:30:21;;;;;;;15.27;11.32;;;20.00;99.90;;;;;;4957163;29;20200;-70
2023/06/22 19:32:49;;;;;;;16.85;10.70;;;19.90;99.90;;;;;;4956937;29;20239;-69
2023/06/22 19:35:17;;;;;;;15.70;10.90;;;19.80;99.90;;;;;;4944850;29;20215;-70
2023/06/22 19:37:44;;;;;;;17.83;10.45;;;19.90;99.90;;;;;;4956462;29;20224;-70
2023/06/22 19:40:12;;;;;;;14.35;10.02;;;19.90;99.90;;;;;;4956999;29;20662;-69
2023/06/22 19:42:40;;;;;;;13.80;10.18;;;19.80;99.90;;;;;;4956681;29;20212;-69
2023/06/22 19:45:08;;;;;;;15.40;10.13;;;19.80;99.90;;;;;;4956336;29;20232;-69
2023/06/22 19:47:37;;;;;;;15.18;9.85;;;19.80;99.90;;;;;;4956770;29;20231;-69
2023/06/22 19:50:05;;;;;;;17.55;10.93;;;19.80;99.90;;;;;;4956567;29;20220;-69
2023/06/22 19:52:36;;;;;;;12.68;9.27;;;19.80;99.90;;;;;;4955051;28;20218;-70
2023/06/22 19:55:03;;;;;;;14.18;9.57;;;19.80;99.90;;;;;;4957091;29;20218;-69
2023/06/22 19:57:35;;;;;;;18.45;10.27;;;19.80;99.90;;;;;;4956299;29;20252;-69
2023/06/22 20:00:06;;;;;;;19.10;12.70;;;19.80;99.90;;;;;;4956785;29;20215;-69
2023/06/22 20:02:33;;;;;;;22.52;13.63;;;19.70;99.90;;;;;;4956308;29;20208;-69
2023/06/22 20:05:06;;;;;;;19.27;13.02;;;19.60;99.90;;;;;;4956251;29;20235;-70
2023/06/22 20:07:37;;;;;;;25.27;15.18;;;19.70;99.90;;;;;;4955798;29;20256;-69
2023/06/22 20:10:13;;;;;;;24.67;17.05;;;19.60;99.90;;;;;;4955866;29;20212;-70
2023/06/22 20:12:40;;;;;;;29.88;16.85;;;19.70;99.90;;;;;;4956330;29;20215;-70
2023/06/22 20:15:25;;;;;;;27.55;17.33;;;19.70;99.90;;;;;;4955672;29;20298;-69
2023/06/22 20:18:02;;;;;;;34.00;18.98;;;19.70;99.90;;;;;;4956254;29;20227;-70
2023/06/22 20:20:35;;;;;;;33.95;19.70;;;19.70;99.90;;;;;;4956146;29;20208;-69
2023/06/22 20:23:03;;;;;;;34.92;20.40;;;19.70;99.90;;;;;;4955711;29;20227;-69